createdAt,value
2024-04-24T00:01:39.258Z,2.30
2024-04-24T00:04:06.426Z,2.15
2024-04-24T00:06:33.647Z,2.80
2024-04-24T00:09:01.003Z,2.00
2024-04-24T00:11:28.951Z,2.40
2024-04-24T00:13:56.228Z,2.05
2024-04-24T00:16:23.400Z,1.83
2024-04-24T00:18:50.636Z,2.03
2024-04-24T00:21:18.285Z,2.10
2024-04-24T00:23:45.383Z,2.00
2024-04-24T00:26:12.593Z,2.28
2024-04-24T00:28:39.867Z,2.20
2024-04-24T00:31:07.176Z,2.25
2024-04-24T00:33:34.488Z,1.85
2024-04-24T00:36:01.562Z,1.75
2024-04-24T00:38:28.569Z,2.20
2024-04-24T00:40:55.725Z,2.55
2024-04-24T00:43:22.843Z,1.98
2024-04-24T00:45:49.858Z,2.15
2024-04-24T00:48:17.467Z,2.30
2024-04-24T00:50:45.281Z,2.40
2024-04-24T00:53:12.897Z,2.03
2024-04-24T00:55:40.802Z,1.88
2024-04-24T00:58:07.863Z,2.30
2024-04-24T01:00:35.747Z,2.28
2024-04-24T01:03:06.747Z,2.10
2024-04-24T01:05:34.662Z,2.28
2024-04-24T01:08:01.968Z,1.95
2024-04-24T01:10:29.459Z,2.00
2024-04-24T01:12:56.657Z,2.38
2024-04-24T01:15:26.771Z,2.65
2024-04-24T01:17:56.240Z,2.35
2024-04-24T01:20:27.666Z,1.70
2024-04-24T01:23:39.265Z,1.90
2024-04-24T01:26:12.222Z,2.40
2024-04-24T01:28:40.129Z,2.20
2024-04-24T01:31:07.741Z,2.03
2024-04-24T01:33:34.765Z,1.90
2024-04-24T01:36:03.232Z,2.00
2024-04-24T01:38:30.482Z,2.55
2024-04-24T01:40:57.805Z,2.13
2024-04-24T01:43:25.097Z,2.10
2024-04-24T01:45:52.410Z,1.80
2024-04-24T01:48:19.662Z,2.20
2024-04-24T01:50:46.788Z,1.73
2024-04-24T01:53:14.166Z,2.20
2024-04-24T01:55:41.176Z,1.63
2024-04-24T01:58:08.276Z,1.90
2024-04-24T02:00:37.299Z,2.30
2024-04-24T02:03:05.108Z,2.00
2024-04-24T02:05:33.199Z,2.28
2024-04-24T02:08:00.642Z,1.60
2024-04-24T02:10:28.524Z,1.38
2024-04-24T02:12:55.763Z,1.88
2024-04-24T02:15:23.280Z,1.80
2024-04-24T02:17:51.027Z,1.65
2024-04-24T02:20:18.407Z,1.63
2024-04-24T02:22:45.825Z,1.80
2024-04-24T02:25:51.289Z,1.42
2024-04-24T02:28:18.398Z,1.42
2024-04-24T02:30:45.532Z,1.40
2024-04-24T02:33:12.667Z,1.23
2024-04-24T02:35:40.303Z,2.13
2024-04-24T02:38:10.073Z,1.27
2024-04-24T02:40:37.256Z,1.40
2024-04-24T02:43:04.509Z,1.40
2024-04-24T02:45:31.564Z,1.65
2024-04-24T02:47:58.906Z,2.08
2024-04-24T02:50:27.836Z,1.60
2024-04-24T02:52:55.134Z,1.52
2024-04-24T02:55:22.514Z,1.52
2024-04-24T02:57:49.603Z,1.80
2024-04-24T03:00:16.705Z,1.85
2024-04-24T03:02:44.156Z,1.73
2024-04-24T03:05:11.438Z,1.50
2024-04-24T03:07:39.382Z,1.80
2024-04-24T03:10:06.911Z,1.70
2024-04-24T03:12:34.193Z,1.50
2024-04-24T03:15:01.300Z,1.70
2024-04-24T03:17:28.864Z,1.73
2024-04-24T03:19:56.149Z,1.83
2024-04-24T03:22:23.233Z,1.60
2024-04-24T03:24:50.269Z,1.50
2024-04-24T03:27:17.416Z,1.88
2024-04-24T03:29:44.518Z,1.92
2024-04-24T03:32:17.064Z,1.40
2024-04-24T03:34:44.343Z,1.40
2024-04-24T03:37:11.450Z,1.70
2024-04-24T03:39:38.948Z,1.58
2024-04-24T03:42:06.327Z,1.40
2024-04-24T03:44:33.524Z,1.55
2024-04-24T03:47:01.179Z,1.63
2024-04-24T03:49:28.227Z,1.70
2024-04-24T03:51:55.366Z,1.40
2024-04-24T03:54:22.817Z,1.63
2024-04-24T03:56:50.966Z,1.30
2024-04-24T03:59:19.209Z,1.65
2024-04-24T04:01:47.243Z,1.60
2024-04-24T04:04:14.711Z,1.83
2024-04-24T04:06:44.891Z,1.40
2024-04-24T04:09:11.915Z,1.50
2024-04-24T04:11:40.838Z,1.30
2024-04-24T04:14:08.046Z,1.38
2024-04-24T04:16:35.333Z,2.22
2024-04-24T04:19:02.821Z,2.10
2024-04-24T04:21:29.978Z,2.00
2024-04-24T04:23:57.258Z,1.48
2024-04-24T04:26:25.853Z,1.70
2024-04-24T04:28:52.982Z,2.10
2024-04-24T04:31:20.475Z,1.63
2024-04-24T04:33:48.076Z,1.77
2024-04-24T04:36:15.724Z,1.75
2024-04-24T04:38:43.082Z,2.25
2024-04-24T04:41:17.015Z,1.70
2024-04-24T04:43:44.441Z,1.55
2024-04-24T04:46:13.965Z,1.45
2024-04-24T04:48:41.222Z,1.80
2024-04-24T04:51:13.421Z,1.80
2024-04-24T04:53:41.711Z,2.10
2024-04-24T04:56:08.948Z,1.77
2024-04-24T04:58:36.365Z,1.60
2024-04-24T05:01:05.100Z,1.92
2024-04-24T05:03:32.707Z,2.35
2024-04-24T05:06:01.029Z,2.03
2024-04-24T05:08:28.468Z,2.60
2024-04-24T05:10:55.940Z,2.70
2024-04-24T05:13:25.067Z,2.10
2024-04-24T05:15:52.396Z,2.47
2024-04-24T05:18:22.363Z,2.60
2024-04-24T05:20:52.951Z,2.15
2024-04-24T05:23:25.476Z,2.53
2024-04-24T05:25:58.937Z,2.20
2024-04-24T05:28:48.273Z,2.17
2024-04-24T05:31:16.540Z,2.50
2024-04-24T05:33:44.098Z,2.30
2024-04-24T05:36:11.969Z,2.33
2024-04-24T05:38:39.101Z,2.25
2024-04-24T05:41:06.635Z,1.80
2024-04-24T05:43:34.267Z,2.10
2024-04-24T05:46:01.439Z,1.65
2024-04-24T05:48:28.728Z,1.88
2024-04-24T05:50:56.450Z,2.17
2024-04-24T05:53:23.541Z,1.83
2024-04-24T05:55:50.670Z,2.00
2024-04-24T05:58:17.958Z,1.70
2024-04-24T06:00:45.229Z,2.17
2024-04-24T06:03:12.338Z,1.63
2024-04-24T06:05:39.859Z,1.92
2024-04-24T06:08:08.118Z,1.88
2024-04-24T06:10:35.401Z,2.03
2024-04-24T06:13:02.656Z,1.77
2024-04-24T06:15:32.085Z,1.65
2024-04-24T06:18:03.595Z,1.80
2024-04-24T06:20:31.047Z,2.35
2024-04-24T06:22:58.233Z,1.85
2024-04-24T06:25:25.515Z,2.22
2024-04-24T06:27:52.685Z,1.80
2024-04-24T06:30:20.178Z,1.83
2024-04-24T06:32:47.550Z,1.60
2024-04-24T06:35:16.230Z,1.50
2024-04-24T06:37:43.504Z,1.88
2024-04-24T06:40:10.774Z,1.38
2024-04-24T06:42:39.636Z,1.90
2024-04-24T06:45:07.661Z,1.73
2024-04-24T06:47:34.727Z,2.00
2024-04-24T06:50:02.177Z,1.60
2024-04-24T06:52:31.065Z,2.15
2024-04-24T06:54:58.156Z,1.92
2024-04-24T06:57:25.424Z,2.20
2024-04-24T06:59:52.456Z,1.98
2024-04-24T07:02:19.840Z,2.20
2024-04-24T07:04:47.270Z,1.60
2024-04-24T07:07:15.354Z,1.75
2024-04-24T07:09:42.351Z,1.83
2024-04-24T07:12:09.424Z,2.25
2024-04-24T07:14:36.435Z,1.90
2024-04-24T07:17:03.700Z,1.80
2024-04-24T07:19:30.886Z,2.13
2024-04-24T07:21:58.167Z,1.70
2024-04-24T07:24:25.453Z,2.13
2024-04-24T07:26:52.721Z,1.52
2024-04-24T07:29:22.821Z,2.20
2024-04-24T07:31:50.280Z,2.38
2024-04-24T07:34:17.943Z,2.10
2024-04-24T07:36:45.167Z,1.90
2024-04-24T07:39:12.469Z,1.75
2024-04-24T07:41:42.976Z,1.67
2024-04-24T07:44:10.824Z,1.80
2024-04-24T07:46:38.286Z,2.03
2024-04-24T07:49:05.327Z,1.80
2024-04-24T07:51:32.791Z,2.20
2024-04-24T07:54:00.308Z,1.88
2024-04-24T07:56:27.718Z,1.75
2024-04-24T07:58:56.298Z,1.88
2024-04-24T08:01:23.593Z,1.67
2024-04-24T08:03:50.792Z,2.22
2024-04-24T08:06:19.047Z,3.45
2024-04-24T08:08:46.189Z,2.05
2024-04-24T08:11:13.422Z,2.33
2024-04-24T08:13:40.735Z,2.42
2024-04-24T08:16:08.019Z,1.90
2024-04-24T08:18:35.315Z,2.15
2024-04-24T08:21:02.664Z,1.48
2024-04-24T08:23:29.948Z,1.38
2024-04-24T08:25:57.184Z,1.65
2024-04-24T08:28:33.230Z,2.97
2024-04-24T08:31:07.684Z,1.60
2024-04-24T08:33:36.557Z,1.58
2024-04-24T08:36:07.919Z,1.73
2024-04-24T08:38:35.358Z,1.70
2024-04-24T08:41:11.599Z,1.00
2024-04-24T08:43:43.656Z,1.52
2024-04-24T08:46:12.210Z,1.10
2024-04-24T08:48:44.375Z,1.30
2024-04-24T08:51:14.266Z,1.45
2024-04-24T08:54:05.022Z,1.80
2024-04-24T08:56:44.844Z,1.20
2024-04-24T08:59:24.203Z,1.10
2024-04-24T09:02:11.374Z,2.00
2024-04-24T09:04:42.321Z,1.25
2024-04-24T09:07:10.094Z,1.40
2024-04-24T09:09:37.661Z,1.30
2024-04-24T09:12:09.299Z,1.40
2024-04-24T09:14:37.543Z,1.30
2024-04-24T09:17:07.086Z,1.45
2024-04-24T09:19:34.906Z,1.40
2024-04-24T09:22:02.447Z,1.88
2024-04-24T09:24:29.543Z,1.23
2024-04-24T09:26:57.452Z,1.23
2024-04-24T09:29:25.081Z,1.13
2024-04-24T09:31:52.768Z,0.90
2024-04-24T09:34:19.895Z,1.05
2024-04-24T09:36:48.594Z,0.93
2024-04-24T09:39:19.988Z,1.40
2024-04-24T09:41:51.501Z,1.30
2024-04-24T09:44:24.244Z,1.00
2024-04-24T09:46:55.060Z,1.70
2024-04-24T09:49:23.043Z,1.27
2024-04-24T09:51:51.830Z,1.60
2024-04-24T09:54:20.018Z,1.70
2024-04-24T09:56:49.836Z,1.58
2024-04-24T09:59:18.961Z,1.50
2024-04-24T10:01:54.820Z,1.63
2024-04-24T10:04:26.722Z,1.30
2024-04-24T10:06:55.695Z,1.63
2024-04-24T10:09:27.482Z,1.42
2024-04-24T10:12:03.465Z,1.40
2024-04-24T10:14:34.451Z,1.50
2024-04-24T10:17:02.982Z,1.70
2024-04-24T10:19:31.830Z,1.67
2024-04-24T10:22:00.255Z,1.40
2024-04-24T10:24:27.995Z,1.45
2024-04-24T10:26:57.604Z,1.60
2024-04-24T10:29:26.625Z,1.60
2024-04-24T10:31:57.487Z,1.92
2024-04-24T10:34:25.662Z,1.85
2024-04-24T10:36:53.279Z,1.83
2024-04-24T10:39:21.069Z,1.90
2024-04-24T10:41:49.035Z,1.60
2024-04-24T10:44:17.293Z,1.80
2024-04-24T10:46:47.037Z,1.50
2024-04-24T10:49:16.347Z,1.52
2024-04-24T10:51:50.091Z,1.77
2024-04-24T10:54:17.520Z,1.15
2024-04-24T10:56:48.639Z,1.88
2024-04-24T10:59:17.016Z,2.15
2024-04-24T11:01:53.401Z,2.03
2024-04-24T11:04:26.183Z,1.42
2024-04-24T11:06:54.953Z,1.33
2024-04-24T11:09:22.786Z,1.30
2024-04-24T11:11:52.276Z,1.42
2024-04-24T11:14:22.734Z,1.48
2024-04-24T11:16:57.555Z,2.35
2024-04-24T11:19:25.351Z,1.83
2024-04-24T11:21:52.756Z,1.48
2024-04-24T11:24:33.435Z,1.23
2024-04-24T11:27:01.717Z,1.23
2024-04-24T11:29:42.410Z,1.50
2024-04-24T11:32:13.863Z,1.75
2024-04-24T11:34:41.685Z,1.40
2024-04-24T11:37:09.999Z,1.48
2024-04-24T11:39:37.447Z,1.35
2024-04-24T11:42:05.083Z,1.80
2024-04-24T11:44:33.179Z,1.60
2024-04-24T11:47:00.660Z,1.60
2024-04-24T11:49:28.126Z,2.15
2024-04-24T11:51:58.890Z,1.67
2024-04-24T11:54:29.552Z,1.92
2024-04-24T11:57:01.432Z,1.90
2024-04-24T11:59:31.179Z,1.85
2024-04-24T12:01:58.627Z,1.60
2024-04-24T12:04:25.895Z,1.45
2024-04-24T12:06:52.952Z,1.35
2024-04-24T12:09:20.215Z,2.00
2024-04-24T12:11:47.484Z,1.77
2024-04-24T12:14:18.496Z,2.00
2024-04-24T12:16:46.022Z,1.88
2024-04-24T12:19:13.786Z,1.88
2024-04-24T12:21:42.583Z,1.83
2024-04-24T12:24:10.163Z,1.67
2024-04-24T12:26:37.595Z,1.77
2024-04-24T12:29:05.048Z,1.58
2024-04-24T12:31:33.177Z,1.80
2024-04-24T12:34:00.678Z,2.15
2024-04-24T12:36:28.845Z,2.72
2024-04-24T12:38:56.379Z,1.67
2024-04-24T12:41:24.157Z,2.20
2024-04-24T12:43:51.515Z,2.10
2024-04-24T12:46:18.668Z,1.95
2024-04-24T12:48:52.859Z,2.15
2024-04-24T12:51:20.033Z,1.70
2024-04-24T12:53:47.084Z,2.05
2024-04-24T12:56:14.354Z,1.98
2024-04-24T12:58:41.625Z,1.88
2024-04-24T13:01:09.190Z,2.13
2024-04-24T13:03:36.339Z,1.70
2024-04-24T13:06:04.030Z,2.80
2024-04-24T13:08:31.416Z,2.08
2024-04-24T13:10:58.737Z,1.80
2024-04-24T13:13:25.847Z,1.88
2024-04-24T13:15:53.820Z,1.85
2024-04-24T13:18:22.108Z,1.50
2024-04-24T13:20:50.648Z,1.83
2024-04-24T13:23:17.776Z,1.88
2024-04-24T13:25:45.424Z,2.00
2024-04-24T13:28:13.092Z,2.05
2024-04-24T13:30:40.339Z,2.28
2024-04-24T13:33:08.155Z,2.35
2024-04-24T13:35:38.520Z,2.33
2024-04-24T13:38:06.672Z,2.10
2024-04-24T13:40:34.041Z,1.95
2024-04-24T13:43:01.457Z,1.80
2024-04-24T13:45:28.556Z,1.73
2024-04-24T13:47:56.146Z,1.70
2024-04-24T13:50:23.446Z,1.70
2024-04-24T13:52:50.548Z,1.80
2024-04-24T13:55:17.810Z,2.10
2024-04-24T13:57:45.032Z,2.08
2024-04-24T14:00:12.621Z,1.75
2024-04-24T14:02:43.232Z,1.80
2024-04-24T14:05:12.176Z,1.35
2024-04-24T14:07:39.419Z,1.67
2024-04-24T14:10:08.655Z,1.73
2024-04-24T14:12:36.119Z,1.67
2024-04-24T14:15:03.940Z,1.67
2024-04-24T14:17:33.006Z,2.00
2024-04-24T14:20:00.766Z,1.63
2024-04-24T14:22:28.112Z,1.42
2024-04-24T14:24:55.364Z,1.70
2024-04-24T14:27:22.487Z,1.63
2024-04-24T14:29:50.299Z,1.38
2024-04-24T14:32:17.894Z,1.88
2024-04-24T14:34:46.444Z,1.65
2024-04-24T14:37:13.765Z,1.40
2024-04-24T14:39:41.003Z,2.25
2024-04-24T14:42:08.232Z,1.80
2024-04-24T14:44:35.375Z,1.60
2024-04-24T14:47:02.867Z,1.52
2024-04-24T14:49:30.190Z,1.83
2024-04-24T14:51:57.423Z,2.97
2024-04-24T14:54:24.747Z,1.70
2024-04-24T14:56:52.004Z,1.65
2024-04-24T14:59:19.271Z,1.77
2024-04-24T15:01:46.897Z,1.50
2024-04-24T15:04:14.688Z,1.65
2024-04-24T15:07:04.618Z,1.65
2024-04-24T15:09:35.101Z,1.10
2024-04-24T15:12:03.071Z,1.73
2024-04-24T15:14:30.895Z,1.42
2024-04-24T15:16:58.722Z,1.40
2024-04-24T15:19:26.357Z,1.67
2024-04-24T15:21:55.106Z,1.92
2024-04-24T15:24:23.289Z,1.95
2024-04-24T15:26:53.452Z,1.75
2024-04-24T15:29:20.704Z,1.70
2024-04-24T15:31:47.749Z,1.98
2024-04-24T15:34:16.375Z,1.88
2024-04-24T15:36:43.754Z,1.75
2024-04-24T15:39:10.940Z,2.83
2024-04-24T15:41:39.573Z,2.22
2024-04-24T15:44:06.784Z,2.28
2024-04-24T15:46:34.011Z,2.83
2024-04-24T15:49:01.160Z,1.67
2024-04-24T15:51:28.271Z,2.13
2024-04-24T15:53:55.668Z,2.20
2024-04-24T15:56:23.010Z,2.40
2024-04-24T15:58:50.403Z,1.52
2024-04-24T16:01:18.785Z,2.42
2024-04-24T16:03:45.968Z,1.77
2024-04-24T16:06:13.182Z,2.00
2024-04-24T16:08:40.518Z,1.67
2024-04-24T16:11:07.858Z,1.90
2024-04-24T16:13:38.121Z,1.52
2024-04-24T16:16:06.111Z,2.90
2024-04-24T16:18:39.686Z,2.83
2024-04-24T16:21:13.135Z,2.35
2024-04-24T16:23:41.504Z,3.65
2024-04-24T16:26:13.024Z,2.38
2024-04-24T16:28:40.344Z,2.55
2024-04-24T16:31:07.870Z,2.42
2024-04-24T16:33:35.572Z,2.15
2024-04-24T16:36:02.814Z,2.60
2024-04-24T16:38:30.520Z,1.98
2024-04-24T16:40:58.139Z,2.50
2024-04-24T16:43:25.332Z,1.67
2024-04-24T16:45:52.889Z,1.70
2024-04-24T16:48:20.649Z,2.00
2024-04-24T16:50:48.099Z,2.60
2024-04-24T16:53:15.789Z,5.18
2024-04-24T16:55:43.656Z,4.40
2024-04-24T16:58:12.043Z,3.35
2024-04-24T17:00:39.791Z,2.63
2024-04-24T17:03:07.081Z,4.88
2024-04-24T17:05:34.435Z,6.10
2024-04-24T17:08:01.828Z,6.60
2024-04-24T17:10:28.996Z,4.20
2024-04-24T17:12:56.075Z,3.42
2024-04-24T17:15:23.436Z,2.40
2024-04-24T17:17:50.736Z,2.42
2024-04-24T17:20:17.881Z,2.80
2024-04-24T17:22:45.025Z,1.92
2024-04-24T17:25:14.716Z,2.22
2024-04-24T17:27:42.966Z,2.42
2024-04-24T17:30:14.286Z,2.05
2024-04-24T17:32:41.806Z,2.03
2024-04-24T17:35:10.696Z,2.65
2024-04-24T17:37:37.902Z,1.95
2024-04-24T17:40:05.623Z,1.92
2024-04-24T17:42:32.965Z,2.30
2024-04-24T17:45:00.476Z,1.85
2024-04-24T17:47:28.970Z,2.15
2024-04-24T17:49:56.105Z,2.53
2024-04-24T17:52:24.210Z,2.63
2024-04-24T17:54:51.684Z,1.77
2024-04-24T17:57:18.903Z,2.42
2024-04-24T17:59:46.031Z,2.47
2024-04-24T18:02:13.356Z,3.00
2024-04-24T18:04:40.669Z,2.85
2024-04-24T18:07:07.849Z,3.13
2024-04-24T18:09:37.431Z,2.78
2024-04-24T18:12:04.938Z,2.53
2024-04-24T18:14:32.102Z,3.10
2024-04-24T18:16:59.268Z,2.60
2024-04-24T18:19:26.793Z,2.47
2024-04-24T18:21:53.832Z,2.45
2024-04-24T18:24:24.570Z,1.90
2024-04-24T18:26:51.553Z,2.30
2024-04-24T18:29:18.624Z,2.20
2024-04-24T18:31:45.636Z,3.33
2024-04-24T18:34:15.616Z,3.10
2024-04-24T18:36:43.500Z,2.20
2024-04-24T18:39:10.742Z,2.63
2024-04-24T18:41:38.609Z,2.05
2024-04-24T18:44:06.840Z,2.20
2024-04-24T18:46:34.241Z,1.70
2024-04-24T18:49:01.606Z,1.42
2024-04-24T18:51:28.917Z,2.05
2024-04-24T18:53:55.955Z,1.70
2024-04-24T18:56:24.355Z,1.65
2024-04-24T18:58:51.569Z,1.63
2024-04-24T19:01:19.006Z,1.58
2024-04-24T19:03:46.212Z,1.65
2024-04-24T19:06:13.760Z,1.40
2024-04-24T19:08:40.828Z,1.30
2024-04-24T19:11:08.072Z,2.13
2024-04-24T19:13:35.431Z,2.20
2024-04-24T19:16:02.634Z,2.50
2024-04-24T19:18:29.860Z,2.70
2024-04-24T19:21:03.996Z,2.58
2024-04-24T19:23:31.317Z,2.65
2024-04-24T19:25:58.470Z,2.50
2024-04-24T19:28:25.991Z,2.20
2024-04-24T19:30:53.674Z,3.15
2024-04-24T19:33:21.075Z,2.38
2024-04-24T19:35:51.744Z,2.38
2024-04-24T19:38:22.833Z,2.63
2024-04-24T19:40:50.038Z,2.20
2024-04-24T19:43:17.197Z,3.08
2024-04-24T19:45:48.039Z,2.47
2024-04-24T19:48:16.177Z,2.92
2024-04-24T19:50:47.198Z,2.40
2024-04-24T19:53:14.596Z,2.72
2024-04-24T19:55:41.944Z,2.70
2024-04-24T19:58:09.746Z,2.75
2024-04-24T20:00:37.253Z,2.40
2024-04-24T20:03:05.363Z,2.10
2024-04-24T20:05:33.455Z,2.67
2024-04-24T20:08:01.248Z,2.20
2024-04-24T20:10:32.084Z,2.83
2024-04-24T20:12:59.103Z,2.22
2024-04-24T20:15:35.007Z,2.85
2024-04-24T20:18:04.078Z,2.72
2024-04-24T20:20:38.625Z,2.83
2024-04-24T20:23:08.575Z,2.35
2024-04-24T20:25:40.595Z,2.42
2024-04-24T20:28:10.221Z,2.65
2024-04-24T20:30:37.879Z,2.40
2024-04-24T20:33:16.544Z,2.63
2024-04-24T20:35:44.068Z,2.35
2024-04-24T20:38:13.608Z,3.45
2024-04-24T20:40:44.743Z,3.78
2024-04-24T20:43:12.318Z,3.17
2024-04-24T20:45:41.657Z,2.28
2024-04-24T20:48:10.622Z,2.42
2024-04-24T20:50:37.960Z,2.45
2024-04-24T20:53:08.921Z,2.65
2024-04-24T20:55:44.022Z,3.13
2024-04-24T20:58:11.277Z,3.00
2024-04-24T21:00:38.862Z,2.25
2024-04-24T21:03:06.478Z,2.95
2024-04-24T21:05:35.571Z,2.40
2024-04-24T21:08:04.207Z,2.97
2024-04-24T21:10:31.603Z,2.75
2024-04-24T21:12:58.914Z,2.92
2024-04-24T21:15:26.070Z,2.13
2024-04-24T21:17:54.120Z,2.83
2024-04-24T21:20:21.640Z,2.40
2024-04-24T21:22:50.558Z,2.63
2024-04-24T21:25:19.838Z,2.10
2024-04-24T21:27:51.509Z,2.30
2024-04-24T21:30:18.536Z,2.45
2024-04-24T21:32:45.695Z,2.20
2024-04-24T21:35:12.974Z,2.42
2024-04-24T21:37:40.638Z,2.20
2024-04-24T21:40:08.934Z,2.30
2024-04-24T21:42:39.393Z,2.33
2024-04-24T21:45:06.809Z,2.00
2024-04-24T21:47:35.065Z,2.47
2024-04-24T21:50:05.236Z,2.30
2024-04-24T21:52:33.031Z,2.00
2024-04-24T21:55:03.110Z,2.38
2024-04-24T21:57:31.277Z,2.10
2024-04-24T21:59:58.883Z,2.20
2024-04-24T22:02:28.751Z,1.90
2024-04-24T22:04:57.280Z,1.98
2024-04-24T22:07:24.385Z,2.45
2024-04-24T22:09:51.597Z,2.30
2024-04-24T22:12:18.849Z,3.25
2024-04-24T22:14:48.001Z,1.75
2024-04-24T22:17:19.783Z,2.58
2024-04-24T22:19:54.125Z,2.80
2024-04-24T22:22:24.313Z,2.50
2024-04-24T22:24:55.756Z,2.22
2024-04-24T22:27:22.854Z,2.60
2024-04-24T22:29:49.919Z,1.95
2024-04-24T22:32:17.206Z,2.20
2024-04-24T22:34:44.677Z,2.00
2024-04-24T22:37:13.586Z,2.97
2024-04-24T22:39:42.658Z,2.50
2024-04-24T22:42:12.542Z,2.35
2024-04-24T22:44:39.904Z,2.70
2024-04-24T22:47:07.875Z,2.45
2024-04-24T22:49:36.743Z,2.45
2024-04-24T22:52:06.462Z,2.58
2024-04-24T22:54:37.423Z,2.67
2024-04-24T22:57:04.799Z,3.13
2024-04-24T22:59:32.201Z,2.38
2024-04-24T23:02:00.011Z,2.30
2024-04-24T23:04:36.944Z,2.90
2024-04-24T23:07:06.164Z,2.50
2024-04-24T23:09:33.435Z,2.45
2024-04-24T23:12:02.473Z,2.42
2024-04-24T23:14:31.851Z,2.38
2024-04-24T23:17:00.604Z,2.88
2024-04-24T23:19:27.963Z,2.40
2024-04-24T23:21:54.967Z,2.50
2024-04-24T23:24:22.787Z,1.92
2024-04-24T23:26:51.512Z,2.22
2024-04-24T23:29:20.491Z,2.58
2024-04-24T23:31:47.682Z,2.58
2024-04-24T23:34:16.726Z,2.35
2024-04-24T23:36:43.903Z,2.72
2024-04-24T23:39:12.276Z,2.25
2024-04-24T23:41:43.851Z,2.97
2024-04-24T23:44:13.669Z,2.35
2024-04-24T23:46:42.633Z,2.17
2024-04-24T23:49:12.240Z,2.50
2024-04-24T23:51:39.650Z,2.30
2024-04-24T23:54:06.893Z,2.40
2024-04-24T23:56:34.591Z,2.40
2024-04-24T23:59:02.845Z,2.08
